createdAt,value
2022-09-27T00:01:47.754Z,12.20
2022-09-27T00:04:17.237Z,12.30
2022-09-27T00:06:46.890Z,12.30
2022-09-27T00:09:16.827Z,12.50
2022-09-27T00:11:46.332Z,12.60
2022-09-27T00:14:25.546Z,12.60
2022-09-27T00:16:55.547Z,12.60
2022-09-27T00:19:26.289Z,12.70
2022-09-27T00:21:56.153Z,12.60
2022-09-27T00:24:25.790Z,12.70
2022-09-27T00:26:55.652Z,12.60
2022-09-27T00:29:26.692Z,12.50
2022-09-27T00:31:56.469Z,12.40
2022-09-27T00:34:27.149Z,12.30
2022-09-27T00:36:57.195Z,12.10
2022-09-27T00:39:27.982Z,12.10
2022-09-27T00:41:57.935Z,12.00
2022-09-27T00:44:58.185Z,12.00
2022-09-27T00:47:29.535Z,11.90
2022-09-27T00:50:00.755Z,11.80
2022-09-27T00:52:32.395Z,11.70
2022-09-27T00:55:04.083Z,11.60
2022-09-27T00:57:35.435Z,11.50
2022-09-27T01:00:07.729Z,11.50
2022-09-27T01:02:37.672Z,11.40
2022-09-27T01:05:08.940Z,11.40
2022-09-27T01:07:38.775Z,11.40
2022-09-27T01:10:08.639Z,11.20
2022-09-27T01:12:45.259Z,11.20
2022-09-27T01:15:21.572Z,11.20
2022-09-27T01:17:57.790Z,11.10
2022-09-27T01:20:36.887Z,10.90
2022-09-27T01:23:14.576Z,10.80
2022-09-27T01:25:54.860Z,10.80
2022-09-27T01:28:27.942Z,10.80
2022-09-27T01:31:04.651Z,10.70
2022-09-27T01:33:45.688Z,10.50
2022-09-27T01:36:30.969Z,10.50
2022-09-27T01:39:06.776Z,10.40
2022-09-27T01:41:39.353Z,10.40
2022-09-27T01:44:11.814Z,10.40
2022-09-27T01:46:44.701Z,10.40
2022-09-27T01:49:15.866Z,10.50
2022-09-27T01:51:47.105Z,10.50
2022-09-27T01:54:18.440Z,10.40
2022-09-27T01:56:50.261Z,10.50
2022-09-27T01:59:23.016Z,10.50
2022-09-27T02:01:54.732Z,10.40
2022-09-27T02:04:26.204Z,10.30
2022-09-27T02:06:57.329Z,10.30
2022-09-27T02:09:29.570Z,10.40
2022-09-27T02:12:01.150Z,10.40
2022-09-27T02:14:33.512Z,10.30
2022-09-27T02:17:09.284Z,10.30
2022-09-27T02:19:43.447Z,10.20
2022-09-27T02:22:17.615Z,10.10
2022-09-27T02:24:50.488Z,10.10
2022-09-27T02:27:23.378Z,10.00
2022-09-27T02:29:56.327Z,10.00
2022-09-27T02:32:28.000Z,10.00
2022-09-27T02:34:58.480Z,10.10
2022-09-27T02:37:28.066Z,10.20
2022-09-27T02:39:57.786Z,10.20
2022-09-27T02:42:27.852Z,10.30
2022-09-27T02:44:58.001Z,10.30
2022-09-27T02:47:39.947Z,10.20
2022-09-27T02:50:19.085Z,10.20
2022-09-27T02:52:52.309Z,10.20
2022-09-27T02:55:22.831Z,10.20
2022-09-27T02:57:59.454Z,10.30
2022-09-27T03:00:32.563Z,10.30
2022-09-27T03:03:06.719Z,10.30
2022-09-27T03:05:37.725Z,10.30
2022-09-27T03:08:07.210Z,10.30
2022-09-27T03:10:36.814Z,10.40
2022-09-27T03:13:06.778Z,10.50
2022-09-27T03:15:36.340Z,10.60
2022-09-27T03:18:08.121Z,10.60
2022-09-27T03:20:37.511Z,10.60
2022-09-27T03:23:06.957Z,10.60
2022-09-27T03:25:36.684Z,10.60
2022-09-27T03:28:06.664Z,10.60
2022-09-27T03:30:36.516Z,10.60
2022-09-27T03:33:07.636Z,10.60
2022-09-27T03:35:37.487Z,10.70
2022-09-27T03:38:07.739Z,10.70
2022-09-27T03:40:37.282Z,10.70
2022-09-27T03:43:07.405Z,10.70
2022-09-27T03:45:36.836Z,10.90
2022-09-27T03:48:08.231Z,10.90
2022-09-27T03:50:37.701Z,11.00
2022-09-27T03:53:07.098Z,11.20
2022-09-27T03:55:36.550Z,11.20
2022-09-27T03:58:06.007Z,11.30
2022-09-27T04:00:37.829Z,11.30
2022-09-27T04:03:09.093Z,11.30
2022-09-27T04:05:38.520Z,11.30
2022-09-27T04:08:08.501Z,11.20
2022-09-27T04:10:38.112Z,11.20
2022-09-27T04:13:07.558Z,11.20
2022-09-27T04:15:37.124Z,11.20
2022-09-27T04:18:06.687Z,11.10
2022-09-27T04:20:38.253Z,11.20
2022-09-27T04:23:07.733Z,11.20
2022-09-27T04:25:37.406Z,11.30
2022-09-27T04:28:07.232Z,11.20
2022-09-27T04:30:36.678Z,11.30
2022-09-27T04:33:06.098Z,11.40
2022-09-27T04:35:52.573Z,11.50
2022-09-27T04:38:24.018Z,11.60
2022-09-27T04:40:53.935Z,11.60
2022-09-27T04:43:23.371Z,11.70
2022-09-27T04:45:53.192Z,11.70
2022-09-27T04:48:23.358Z,11.70
2022-09-27T04:50:58.199Z,11.80
2022-09-27T04:53:30.316Z,11.80
2022-09-27T04:56:00.067Z,11.90
2022-09-27T04:58:30.493Z,11.90
2022-09-27T05:01:00.423Z,11.90
2022-09-27T05:03:29.969Z,11.90
2022-09-27T05:05:59.719Z,11.80
2022-09-27T05:08:30.857Z,11.90
2022-09-27T05:11:00.255Z,11.90
2022-09-27T05:13:30.077Z,12.00
2022-09-27T05:16:04.270Z,12.00
2022-09-27T05:18:34.136Z,12.00
2022-09-27T05:21:03.842Z,12.00
2022-09-27T05:23:34.860Z,12.00
2022-09-27T05:26:06.038Z,12.10
2022-09-27T05:28:36.121Z,12.10
2022-09-27T05:31:05.718Z,12.00
2022-09-27T05:33:35.195Z,12.10
2022-09-27T05:36:05.113Z,12.10
2022-09-27T05:38:36.911Z,12.20
2022-09-27T05:41:07.224Z,12.20
2022-09-27T05:43:36.994Z,12.20
2022-09-27T05:46:07.049Z,12.20
2022-09-27T05:48:37.675Z,12.20
2022-09-27T05:51:07.372Z,12.20
2022-09-27T05:53:38.696Z,12.20
2022-09-27T05:56:08.620Z,12.10
2022-09-27T05:58:38.009Z,12.20
2022-09-27T06:01:08.986Z,12.10
2022-09-27T06:03:38.716Z,12.10
2022-09-27T06:06:08.349Z,12.10
2022-09-27T06:08:40.285Z,12.00
2022-09-27T06:11:10.517Z,12.00
2022-09-27T06:13:40.188Z,12.00
2022-09-27T06:16:10.487Z,11.90
2022-09-27T06:18:40.334Z,11.90
2022-09-27T06:21:09.726Z,11.80
2022-09-27T06:23:40.755Z,11.80
2022-09-27T06:26:10.198Z,11.80
2022-09-27T06:28:39.653Z,11.70
2022-09-27T06:31:10.320Z,11.70
2022-09-27T06:33:39.782Z,11.70
2022-09-27T06:36:10.187Z,11.60
2022-09-27T06:38:42.027Z,11.60
2022-09-27T06:41:11.441Z,11.50
2022-09-27T06:43:40.849Z,11.50
2022-09-27T06:46:12.133Z,11.50
2022-09-27T06:48:41.684Z,11.50
2022-09-27T06:51:11.095Z,11.50
2022-09-27T06:53:42.107Z,11.50
2022-09-27T06:56:11.564Z,11.50
2022-09-27T06:58:57.780Z,11.40
2022-09-27T07:01:30.104Z,11.40
2022-09-27T07:03:59.775Z,11.40
2022-09-27T07:06:29.255Z,11.40
2022-09-27T07:09:00.812Z,11.30
2022-09-27T07:11:30.272Z,11.30
2022-09-27T07:14:00.202Z,11.40
2022-09-27T07:16:30.372Z,11.40
2022-09-27T07:19:00.016Z,11.30
2022-09-27T07:21:29.451Z,11.40
2022-09-27T07:24:00.813Z,11.30
2022-09-27T07:26:30.460Z,11.30
2022-09-27T07:29:00.502Z,11.30
2022-09-27T07:31:30.324Z,11.30
2022-09-27T07:33:59.761Z,11.40
2022-09-27T07:36:29.321Z,11.40
2022-09-27T07:39:00.990Z,11.30
2022-09-27T07:41:32.561Z,11.40
2022-09-27T07:44:02.665Z,11.40
2022-09-27T07:46:32.561Z,11.30
2022-09-27T07:49:01.945Z,11.30
2022-09-27T07:51:31.611Z,11.30
2022-09-27T07:54:05.254Z,11.30
2022-09-27T07:56:39.093Z,11.30
2022-09-27T07:59:08.829Z,11.30
2022-09-27T08:01:38.770Z,11.30
2022-09-27T08:04:08.482Z,11.30
2022-09-27T08:06:38.270Z,11.30
2022-09-27T08:09:10.267Z,11.30
2022-09-27T08:11:41.322Z,11.30
2022-09-27T08:14:11.783Z,11.30
2022-09-27T08:16:41.241Z,11.30
2022-09-27T08:19:11.757Z,11.30
2022-09-27T08:21:41.216Z,11.30
2022-09-27T08:24:10.692Z,11.30
2022-09-27T08:26:42.144Z,11.30
2022-09-27T08:29:11.923Z,11.30
2022-09-27T08:31:41.611Z,11.30
2022-09-27T08:34:12.130Z,11.30
2022-09-27T08:36:41.563Z,11.30
2022-09-27T08:39:11.011Z,11.20
2022-09-27T08:41:47.871Z,11.20
2022-09-27T08:44:21.318Z,11.20
2022-09-27T08:46:56.322Z,11.20
2022-09-27T08:49:28.912Z,11.20
2022-09-27T08:52:00.317Z,11.20
2022-09-27T08:54:32.406Z,11.20
2022-09-27T08:57:05.692Z,11.20
2022-09-27T08:59:38.291Z,11.20
2022-09-27T09:02:11.733Z,11.20
2022-09-27T09:04:43.417Z,11.20
2022-09-27T09:07:17.442Z,11.20
2022-09-27T09:09:52.794Z,11.20
2022-09-27T09:12:47.681Z,11.20
2022-09-27T09:15:26.402Z,11.20
2022-09-27T09:18:05.983Z,11.20
2022-09-27T09:20:44.626Z,11.20
2022-09-27T09:23:29.064Z,11.20
2022-09-27T09:26:02.526Z,11.20
2022-09-27T09:28:41.572Z,11.20
2022-09-27T09:31:15.071Z,11.20
2022-09-27T09:33:48.421Z,11.20
2022-09-27T09:36:23.285Z,11.20
2022-09-27T09:38:55.182Z,11.20
2022-09-27T09:41:26.510Z,11.20
2022-09-27T09:44:01.539Z,11.20
2022-09-27T09:46:35.341Z,11.20
2022-09-27T09:49:08.030Z,11.20
2022-09-27T09:51:43.037Z,11.20
2022-09-27T09:54:17.226Z,11.20
2022-09-27T09:56:48.570Z,11.20
2022-09-27T09:59:21.798Z,11.20
2022-09-27T10:01:51.214Z,11.20
2022-09-27T10:04:22.122Z,11.20
2022-09-27T10:06:51.921Z,11.20
2022-09-27T10:09:24.693Z,11.20
2022-09-27T10:11:54.768Z,11.20
2022-09-27T10:14:25.951Z,11.20
2022-09-27T10:16:57.460Z,11.20
2022-09-27T10:19:30.976Z,11.20
2022-09-27T10:22:02.144Z,11.20
2022-09-27T10:24:31.633Z,11.20
2022-09-27T10:27:01.938Z,11.20
2022-09-27T10:29:37.562Z,11.20
2022-09-27T10:32:14.490Z,11.20
2022-09-27T10:34:44.615Z,11.20
2022-09-27T10:37:18.628Z,11.20
2022-09-27T10:39:48.737Z,11.20
2022-09-27T10:42:25.158Z,11.20
2022-09-27T10:44:56.854Z,11.20
2022-09-27T10:47:28.053Z,11.20
2022-09-27T10:50:04.912Z,11.20
2022-09-27T10:52:34.409Z,11.20
2022-09-27T10:55:08.735Z,11.20
2022-09-27T10:57:41.796Z,11.20
2022-09-27T11:00:25.284Z,11.30
2022-09-27T11:02:55.545Z,11.30
2022-09-27T11:05:35.985Z,11.30
2022-09-27T11:08:23.799Z,11.30
2022-09-27T11:11:03.624Z,11.30
2022-09-27T11:13:35.197Z,11.30
2022-09-27T11:16:17.199Z,11.30
2022-09-27T11:18:52.680Z,11.30
2022-09-27T11:21:26.314Z,11.30
2022-09-27T11:24:13.468Z,11.30
2022-09-27T11:26:48.457Z,11.30
2022-09-27T11:29:23.130Z,11.30
2022-09-27T11:32:03.459Z,11.30
2022-09-27T11:34:38.855Z,11.40
2022-09-27T11:37:17.614Z,11.40
2022-09-27T11:39:55.537Z,11.40
2022-09-27T11:42:40.322Z,11.40
2022-09-27T11:45:37.392Z,11.40
2022-09-27T11:48:18.285Z,11.50
2022-09-27T11:50:52.866Z,11.50
2022-09-27T11:53:29.384Z,11.60
2022-09-27T11:56:05.355Z,11.60
2022-09-27T11:58:41.467Z,11.70
2022-09-27T12:01:19.591Z,11.70
2022-09-27T12:04:04.758Z,11.70
2022-09-27T12:06:38.881Z,11.80
2022-09-27T12:09:10.492Z,11.80
2022-09-27T12:11:41.668Z,11.90
2022-09-27T12:14:13.775Z,11.90
2022-09-27T12:16:44.422Z,12.00
2022-09-27T12:19:20.390Z,12.00
2022-09-27T12:21:50.075Z,12.00
2022-09-27T12:24:22.262Z,12.00
2022-09-27T12:26:54.811Z,12.10
2022-09-27T12:29:27.344Z,12.00
2022-09-27T12:31:59.665Z,12.00
2022-09-27T12:34:45.252Z,12.10
2022-09-27T12:37:18.955Z,12.10
2022-09-27T12:39:51.530Z,12.10
2022-09-27T12:42:22.892Z,12.10
2022-09-27T12:44:53.879Z,12.10
2022-09-27T12:47:30.442Z,12.10
2022-09-27T12:50:03.991Z,12.10
2022-09-27T12:52:38.832Z,12.10
2022-09-27T12:55:25.697Z,12.10
2022-09-27T12:58:04.429Z,12.10
2022-09-27T13:00:35.589Z,12.20
2022-09-27T13:03:18.187Z,12.30
2022-09-27T13:06:22.641Z,12.20
2022-09-27T13:09:03.811Z,12.30
2022-09-27T13:11:40.765Z,12.20
2022-09-27T13:14:17.429Z,12.30
2022-09-27T13:16:47.418Z,12.30
2022-09-27T13:19:40.424Z,12.30
2022-09-27T13:22:10.667Z,12.30
2022-09-27T13:24:47.449Z,12.40
2022-09-27T13:27:46.844Z,12.40
2022-09-27T13:30:51.844Z,12.40
2022-09-27T13:33:25.391Z,12.50
2022-09-27T13:36:08.483Z,12.50
2022-09-27T13:38:38.074Z,12.50
2022-09-27T13:41:19.568Z,12.50
2022-09-27T13:44:00.300Z,12.60
2022-09-27T13:46:31.229Z,12.60
2022-09-27T13:49:01.846Z,12.60
2022-09-27T13:51:37.318Z,12.60
2022-09-27T13:54:10.507Z,12.60
2022-09-27T13:56:55.320Z,12.60
2022-09-27T13:59:28.988Z,12.70
2022-09-27T14:02:02.530Z,12.70
2022-09-27T14:04:35.965Z,12.70
2022-09-27T14:07:06.248Z,12.80
2022-09-27T14:09:37.307Z,12.70
2022-09-27T14:12:11.880Z,12.80
2022-09-27T14:14:43.385Z,12.70
2022-09-27T14:17:13.501Z,12.80
2022-09-27T14:19:44.592Z,12.80
2022-09-27T14:22:15.215Z,12.80
2022-09-27T14:24:48.550Z,12.90
2022-09-27T14:27:24.076Z,12.90
2022-09-27T14:29:55.317Z,13.00
2022-09-27T14:32:25.420Z,13.00
2022-09-27T14:35:33.848Z,13.00
2022-09-27T14:38:20.659Z,13.00
2022-09-27T14:41:07.791Z,12.90
2022-09-27T14:43:43.863Z,13.00
2022-09-27T14:46:27.043Z,13.10
2022-09-27T14:48:56.540Z,13.10
2022-09-27T14:51:29.138Z,13.20
2022-09-27T14:54:01.690Z,13.20
2022-09-27T14:56:32.860Z,13.30
2022-09-27T14:59:06.307Z,13.40
2022-09-27T15:01:35.841Z,13.60
2022-09-27T15:04:09.180Z,13.90
2022-09-27T15:06:39.058Z,14.10
2022-09-27T15:09:10.763Z,14.40
2022-09-27T15:11:42.348Z,14.40
2022-09-27T15:14:15.913Z,14.40
2022-09-27T15:17:06.710Z,14.30
2022-09-27T15:19:36.557Z,14.20
2022-09-27T15:22:25.498Z,13.90
2022-09-27T15:24:55.155Z,13.80
2022-09-27T15:27:25.549Z,13.70
2022-09-27T15:29:57.066Z,13.80
2022-09-27T15:32:28.042Z,13.90
2022-09-27T15:34:58.025Z,13.90
2022-09-27T15:37:29.486Z,14.00
2022-09-27T15:40:08.514Z,14.10
2022-09-27T15:42:57.176Z,14.10
2022-09-27T15:45:34.215Z,14.20
2022-09-27T15:48:09.000Z,14.40
2022-09-27T15:50:41.765Z,14.60
2022-09-27T15:53:11.635Z,14.50
2022-09-27T15:55:43.946Z,14.40
2022-09-27T15:58:17.147Z,14.30
2022-09-27T16:00:58.587Z,14.30
2022-09-27T16:03:28.830Z,14.30
2022-09-27T16:05:58.684Z,14.30
2022-09-27T16:08:28.581Z,14.50
2022-09-27T16:10:58.650Z,14.80
2022-09-27T16:13:32.774Z,15.00
2022-09-27T16:16:04.581Z,15.00
2022-09-27T16:18:34.273Z,15.20
2022-09-27T16:21:03.711Z,15.40
2022-09-27T16:23:33.218Z,15.50
2022-09-27T16:26:02.706Z,15.60
2022-09-27T16:28:41.293Z,15.60
2022-09-27T16:31:12.854Z,15.70
2022-09-27T16:34:03.487Z,15.90
2022-09-27T16:36:34.195Z,16.10
2022-09-27T16:39:05.512Z,16.40
2022-09-27T16:41:35.152Z,16.60
2022-09-27T16:44:08.444Z,16.90
2022-09-27T16:46:41.706Z,17.50
2022-09-27T16:49:27.723Z,18.00
2022-09-27T16:52:03.550Z,18.00
2022-09-27T16:54:33.032Z,18.20
2022-09-27T16:57:02.446Z,18.30
2022-09-27T16:59:31.938Z,18.30
2022-09-27T17:02:03.971Z,17.90
2022-09-27T17:04:35.586Z,17.70
2022-09-27T17:07:04.980Z,17.30
2022-09-27T17:09:34.511Z,17.10
2022-09-27T17:12:05.311Z,17.40
2022-09-27T17:14:36.158Z,17.50
2022-09-27T17:17:07.412Z,17.50
2022-09-27T17:19:39.730Z,17.40
2022-09-27T17:22:09.533Z,17.20
2022-09-27T17:24:39.254Z,17.00
2022-09-27T17:27:08.961Z,16.80
2022-09-27T17:29:39.436Z,16.60
2022-09-27T17:32:10.442Z,16.60
2022-09-27T17:34:44.282Z,16.60
2022-09-27T17:37:13.749Z,16.50
2022-09-27T17:39:43.177Z,16.50
2022-09-27T17:42:12.797Z,16.50
2022-09-27T17:44:42.803Z,16.50
2022-09-27T17:47:30.890Z,16.60
2022-09-27T17:50:17.543Z,16.60
2022-09-27T17:52:47.664Z,16.70
2022-09-27T17:55:17.083Z,16.70
2022-09-27T17:57:48.587Z,16.80
2022-09-27T18:00:18.440Z,17.10
2022-09-27T18:02:49.761Z,17.30
2022-09-27T18:05:21.777Z,17.40
2022-09-27T18:07:51.486Z,17.40
2022-09-27T18:10:20.892Z,17.70
2022-09-27T18:12:50.311Z,18.20
2022-09-27T18:15:20.610Z,18.30
2022-09-27T18:17:57.983Z,18.60
2022-09-27T18:20:28.052Z,19.70
2022-09-27T18:22:58.126Z,20.10
2022-09-27T18:25:27.597Z,20.60
2022-09-27T18:27:57.058Z,21.10
2022-09-27T18:30:26.660Z,21.10
2022-09-27T18:32:57.841Z,21.20
2022-09-27T18:35:29.355Z,21.00
2022-09-27T18:37:58.774Z,21.00
2022-09-27T18:40:54.693Z,21.20
2022-09-27T18:43:18.164Z,21.20
2022-09-27T18:45:47.825Z,20.90
2022-09-27T18:48:18.888Z,20.60
2022-09-27T18:50:48.267Z,20.00
2022-09-27T18:53:17.819Z,19.40
2022-09-27T18:55:48.290Z,18.80
2022-09-27T18:58:18.022Z,18.10
2022-09-27T19:00:47.491Z,18.00
2022-09-27T19:03:18.567Z,17.70
2022-09-27T19:05:55.455Z,17.50
2022-09-27T19:08:24.960Z,17.70
2022-09-27T19:10:54.812Z,18.10
2022-09-27T19:13:28.872Z,18.10
2022-09-27T19:16:01.194Z,18.00
2022-09-27T19:18:32.281Z,18.00
2022-09-27T19:21:08.349Z,18.20
2022-09-27T19:23:39.127Z,18.30
2022-09-27T19:26:09.178Z,18.20
2022-09-27T19:28:39.802Z,18.60
2022-09-27T19:31:09.835Z,18.60
2022-09-27T19:33:41.222Z,18.20
2022-09-27T19:36:13.199Z,17.90
2022-09-27T19:38:42.623Z,17.80
2022-09-27T19:41:12.703Z,17.50
2022-09-27T19:43:42.284Z,17.50
2022-09-27T19:46:14.481Z,17.80
2022-09-27T19:48:46.498Z,17.90
2022-09-27T19:51:16.625Z,18.20
2022-09-27T19:53:46.137Z,18.60
2022-09-27T19:56:15.827Z,19.00
2022-09-27T19:58:45.364Z,19.20
2022-09-27T20:01:15.482Z,19.10
2022-09-27T20:03:46.896Z,19.10
2022-09-27T20:06:16.960Z,19.10
2022-09-27T20:08:48.370Z,19.20
2022-09-27T20:11:18.435Z,19.10
2022-09-27T20:13:47.896Z,19.10
2022-09-27T20:16:18.008Z,19.30
2022-09-27T20:18:50.066Z,19.40
2022-09-27T20:21:20.136Z,19.50
2022-09-27T20:23:50.950Z,19.50
2022-09-27T20:26:22.011Z,19.60
2022-09-27T20:28:51.922Z,19.60
2022-09-27T20:31:22.009Z,19.80
2022-09-27T20:33:53.431Z,19.90
2022-09-27T20:36:23.737Z,19.80
2022-09-27T20:38:57.098Z,19.60
2022-09-27T20:41:29.528Z,19.60
2022-09-27T20:44:00.933Z,19.30
2022-09-27T20:46:30.638Z,18.90
2022-09-27T20:49:03.507Z,18.30
2022-09-27T20:51:34.144Z,17.80
2022-09-27T20:54:03.975Z,17.50
2022-09-27T20:56:36.342Z,17.30
2022-09-27T20:59:09.338Z,17.10
2022-09-27T21:01:43.701Z,17.10
2022-09-27T21:04:17.406Z,17.10
2022-09-27T21:06:50.053Z,17.10
2022-09-27T21:09:21.779Z,17.00
2022-09-27T21:11:52.498Z,16.90
2022-09-27T21:14:22.259Z,16.80
2022-09-27T21:16:51.787Z,16.70
2022-09-27T21:19:23.156Z,16.70
2022-09-27T21:21:53.465Z,16.50
2022-09-27T21:24:23.130Z,16.50
2022-09-27T21:26:54.568Z,16.40
2022-09-27T21:29:24.485Z,16.30
2022-09-27T21:31:54.293Z,16.20
2022-09-27T21:34:25.595Z,16.10
2022-09-27T21:36:54.991Z,16.10
2022-09-27T21:39:24.708Z,16.00
2022-09-27T21:41:54.499Z,16.00
2022-09-27T21:47:12.916Z,15.90
2022-09-27T21:49:44.077Z,15.90
2022-09-27T21:52:13.631Z,15.80
2022-09-27T21:54:43.069Z,15.80
2022-09-27T21:57:12.720Z,15.70
2022-09-27T21:59:42.474Z,15.60
2022-09-27T22:02:11.936Z,15.60
2022-09-27T22:04:41.361Z,15.50
2022-09-27T22:07:12.491Z,15.40
2022-09-27T22:09:41.896Z,15.30
2022-09-27T22:12:11.420Z,15.20
2022-09-27T22:14:41.212Z,15.20
2022-09-27T22:17:10.856Z,15.10
2022-09-27T22:19:40.515Z,15.10
2022-09-27T22:22:11.938Z,15.00
2022-09-27T22:24:42.001Z,14.90
2022-09-27T22:27:11.704Z,14.90
2022-09-27T22:29:41.365Z,14.80
2022-09-27T22:32:10.887Z,14.70
2022-09-27T22:34:40.341Z,14.70
2022-09-27T22:37:09.945Z,14.60
2022-09-27T22:39:41.141Z,14.60
2022-09-27T22:42:10.679Z,14.60
2022-09-27T22:44:40.332Z,14.60
2022-09-27T22:47:09.840Z,14.50
2022-09-27T22:49:40.161Z,14.50
2022-09-27T22:52:09.956Z,14.40
2022-09-27T22:54:40.955Z,14.40
2022-09-27T22:57:10.539Z,14.40
2022-09-27T22:59:40.385Z,14.50
2022-09-27T23:02:09.804Z,14.50
2022-09-27T23:04:39.788Z,14.50
2022-09-27T23:07:10.140Z,14.50
2022-09-27T23:09:42.177Z,14.50
2022-09-27T23:12:11.753Z,14.40
2022-09-27T23:14:42.743Z,14.40
2022-09-27T23:17:12.303Z,14.30
2022-09-27T23:19:41.796Z,14.20
2022-09-27T23:22:12.065Z,14.20
2022-09-27T23:24:43.524Z,14.10
2022-09-27T23:27:29.935Z,14.10
2022-09-27T23:29:59.659Z,14.00
2022-09-27T23:32:31.834Z,14.00
2022-09-27T23:35:01.472Z,13.90
2022-09-27T23:37:31.280Z,13.90
2022-09-27T23:40:02.651Z,13.80
2022-09-27T23:42:41.597Z,13.70
2022-09-27T23:45:16.942Z,13.70
2022-09-27T23:47:47.200Z,13.60
2022-09-27T23:50:16.742Z,13.60
2022-09-27T23:52:46.224Z,13.60
2022-09-27T23:55:18.669Z,13.50
2022-09-27T23:57:48.133Z,13.50
